Terminal Aerodrome Forecast
Issued by NWS

Home | Current Version | Previous Version | Text Only | Print | Product List | Glossary On
Versions: 1 2 3 4 5 6 7 8 9 10 11 12 13 14 15 16 17 18 19 20 21 22 23 24 25 26 27 28 29 30
382
FTUS43 KILX 192347
TAFBMI
TAF
KBMI 192347Z 2000/2024 19019G27KT 6SM -SHRA VCTS OVC008CB
      WS020/21050KT
     FM200600 21014G23KT 2SM SHRA VCTS OVC008CB WS020/21050KT
      TEMPO 2010/2014 1SM SHRA OVC003
     FM201400 20015G26KT 2SM SHRA VCTS OVC008CB
     FM201900 22014G24KT 2SM SHRA OVC006=

USA.gov is the U.S. government's official web portal to all federal, state and local government web resources and services.